createdAt,value
2015-10-28T00:00:07.263Z,49.38
2015-10-28T00:00:19.622Z,49.29
2015-10-28T00:00:31.950Z,49.19
2015-10-28T00:00:44.278Z,49.19
2015-10-28T00:00:56.622Z,49.19
2015-10-28T00:01:08.953Z,49.19
2015-10-28T00:01:21.281Z,49.17
2015-10-28T00:01:32.906Z,49.01
2015-10-28T00:01:45.281Z,49.19
2015-10-28T00:01:57.641Z,49.19
2015-10-28T00:02:10.003Z,49.19
2015-10-28T00:02:22.362Z,49.1
2015-10-28T00:02:34.675Z,48.91
2015-10-28T00:02:46.847Z,49.19
2015-10-28T00:02:59.175Z,49.19
2015-10-28T00:03:11.506Z,48.91
2015-10-28T00:03:23.834Z,49.19
2015-10-28T00:03:36.162Z,49.1
2015-10-28T00:03:48.334Z,49.1
2015-10-28T00:04:00.694Z,49.19
2015-10-28T00:04:13.056Z,49.19
2015-10-28T00:04:25.431Z,49.57
2015-10-28T00:04:37.759Z,49.38
2015-10-28T00:04:50.134Z,48.82
2015-10-28T00:05:02.306Z,48.72
2015-10-28T00:05:14.620Z,48.82
2015-10-28T00:05:26.949Z,49.01
2015-10-28T00:05:39.292Z,48.82
2015-10-28T00:05:51.707Z,48.91
2015-10-28T00:06:04.963Z,48.91
2015-10-28T00:06:17.359Z,49.01
2015-10-28T00:06:29.750Z,49.29
2015-10-28T00:06:41.798Z,49.01
2015-10-28T00:06:54.814Z,49.1
2015-10-28T00:07:06.848Z,49.01
2015-10-28T00:07:19.020Z,48.91
2015-10-28T00:07:31.036Z,49.19
2015-10-28T00:07:43.051Z,49.1
2015-10-28T00:07:55.598Z,48.63
2015-10-28T00:08:08.991Z,49.19
2015-10-28T00:08:22.835Z,49.1
2015-10-28T00:08:41.054Z,49.1
2015-10-28T00:08:53.476Z,48.7
2015-10-28T00:09:05.992Z,49.1
2015-10-28T00:09:18.854Z,48.82
2015-10-28T00:09:31.338Z,49.19
2015-10-28T00:09:43.807Z,49.29
2015-10-28T00:09:57.135Z,48.82
2015-10-28T00:10:09.920Z,48.82
2015-10-28T00:10:22.310Z,48.82
2015-10-28T00:10:33.951Z,48.82
2015-10-28T00:10:46.357Z,48.82
2015-10-28T00:10:58.701Z,48.7
2015-10-28T00:11:11.031Z,48.82
2015-10-28T00:11:23.359Z,48.7
2015-10-28T00:11:34.984Z,48.79
2015-10-28T00:11:47.312Z,48.79
2015-10-28T00:11:59.484Z,48.7
2015-10-28T00:12:11.846Z,48.7
2015-10-28T00:12:24.253Z,48.89
2015-10-28T00:12:36.643Z,49.1
2015-10-28T00:12:49.003Z,49.17
2015-10-28T00:13:01.534Z,49.08
2015-10-28T00:13:13.864Z,49.17
2015-10-28T00:13:26.208Z,49.36
2015-10-28T00:13:38.536Z,49.84
2015-10-28T00:13:50.864Z,49.76
2015-10-28T00:14:03.192Z,49.93
2015-10-28T00:14:15.539Z,49.65
2015-10-28T00:14:27.898Z,49.84
2015-10-28T00:14:40.273Z,50.02
2015-10-28T00:14:52.586Z,49.84
2015-10-28T00:15:05.195Z,49.84
2015-10-28T00:15:17.526Z,49.84
2015-10-28T00:15:29.870Z,49.74
2015-10-28T00:15:42.198Z,49.93
2015-10-28T00:15:54.526Z,49.84
2015-10-28T00:16:06.873Z,49.93
2015-10-28T00:16:19.217Z,49.74
2015-10-28T00:16:31.592Z,49.93
2015-10-28T00:16:43.920Z,49.93
2015-10-28T00:16:56.264Z,49.93
2015-10-28T00:17:08.594Z,49.95
2015-10-28T00:17:20.922Z,49.65
2015-10-28T00:17:33.250Z,49.74
2015-10-28T00:17:45.578Z,49.65
2015-10-28T00:17:57.922Z,50.12
2015-10-28T00:18:10.269Z,49.93
2015-10-28T00:18:22.644Z,50.12
2015-10-28T00:18:35.019Z,50.12
2015-10-28T00:18:47.362Z,50.12
2015-10-28T00:18:59.691Z,50.12
2015-10-28T00:19:12.022Z,49.93
2015-10-28T00:19:24.350Z,49.93
2015-10-28T00:19:36.678Z,50.12
2015-10-28T00:19:49.006Z,50.02
2015-10-28T00:20:01.350Z,50.12
2015-10-28T00:20:13.697Z,50.31
2015-10-28T00:20:26.056Z,50.21
2015-10-28T00:20:38.556Z,50.4
2015-10-28T00:20:51.150Z,50.21
2015-10-28T00:21:03.478Z,50.21
2015-10-28T00:21:15.808Z,50.21
2015-10-28T00:21:28.136Z,50.21
2015-10-28T00:21:40.464Z,50.21
2015-10-28T00:21:52.792Z,49.93
2015-10-28T00:22:05.120Z,50.02
2015-10-28T00:22:17.592Z,50.02
2015-10-28T00:22:29.952Z,50.02
2015-10-28T00:22:42.295Z,50.12
2015-10-28T00:22:54.623Z,50.02
2015-10-28T00:23:06.967Z,50.02
2015-10-28T00:23:19.298Z,50.12
2015-10-28T00:23:31.611Z,50.12
2015-10-28T00:23:43.939Z,50.12
2015-10-28T00:23:56.267Z,50.12
2015-10-28T00:24:08.614Z,50.02
2015-10-28T00:24:20.989Z,50.12
2015-10-28T00:24:33.317Z,49.93
2015-10-28T00:24:45.645Z,50.4
2015-10-28T00:24:57.973Z,50.31
2015-10-28T00:25:10.303Z,50.31
2015-10-28T00:25:22.647Z,50.59
2015-10-28T00:25:34.975Z,50.69
2015-10-28T00:25:47.350Z,50.59
2015-10-28T00:25:59.694Z,50.4
2015-10-28T00:26:12.025Z,50.31
2015-10-28T00:26:24.353Z,50.31
2015-10-28T00:26:36.681Z,50.49
2015-10-28T00:26:49.025Z,50.59
2015-10-28T00:27:01.338Z,50.4
2015-10-28T00:27:13.684Z,50.49
2015-10-28T00:27:26.028Z,50.4
2015-10-28T00:27:38.387Z,50.21
2015-10-28T00:27:50.762Z,50.49
2015-10-28T00:28:03.137Z,50.59
2015-10-28T00:28:15.468Z,50.31
2015-10-28T00:28:27.796Z,50.4
2015-10-28T00:28:40.124Z,50.69
2015-10-28T00:28:52.452Z,50.97
2015-10-28T00:29:04.796Z,51.16
2015-10-28T00:29:17.188Z,50.97
2015-10-28T00:29:29.532Z,51.35
2015-10-28T00:29:41.876Z,51.26
2015-10-28T00:29:54.235Z,51.35
2015-10-28T00:30:06.579Z,51.26
2015-10-28T00:30:18.926Z,51.54
2015-10-28T00:30:31.254Z,51.64
2015-10-28T00:30:43.598Z,51.64
2015-10-28T00:30:55.926Z,51.82
2015-10-28T00:31:08.132Z,51.64
2015-10-28T00:31:20.460Z,51.45
2015-10-28T00:31:32.788Z,51.64
2015-10-28T00:31:45.132Z,51.92
2015-10-28T00:31:57.476Z,51.64
2015-10-28T00:32:09.838Z,51.54
2015-10-28T00:32:22.166Z,52.01
2015-10-28T00:32:34.494Z,52.11
2015-10-28T00:32:46.822Z,52.39
2015-10-28T00:32:59.135Z,52.77
2015-10-28T00:33:11.465Z,52.77
2015-10-28T00:33:23.793Z,53.15
2015-10-28T00:33:36.137Z,53.53
2015-10-28T00:33:48.481Z,53.53
2015-10-28T00:34:00.824Z,53.25
2015-10-28T00:34:13.202Z,53.72
2015-10-28T00:34:25.577Z,53.63
2015-10-28T00:34:37.905Z,53.53
2015-10-28T00:34:50.234Z,53.81
2015-10-28T00:35:02.593Z,53.53
2015-10-28T00:35:14.924Z,53.44
2015-10-28T00:35:27.283Z,53.25
2015-10-28T00:35:39.643Z,53.34
2015-10-28T00:35:52.002Z,53.72
2015-10-28T00:36:04.330Z,53.72
2015-10-28T00:36:16.677Z,53.44
2015-10-28T00:36:29.271Z,53.72
2015-10-28T00:36:41.583Z,53.72
2015-10-28T00:36:53.896Z,53.53
2015-10-28T00:37:06.240Z,53.34
2015-10-28T00:37:18.585Z,53.25
2015-10-28T00:37:30.945Z,53.53
2015-10-28T00:37:43.320Z,53.53
2015-10-28T00:37:55.663Z,53.63
2015-10-28T00:38:07.995Z,53.44
2015-10-28T00:38:20.323Z,53.44
2015-10-28T00:38:32.651Z,53.25
2015-10-28T00:38:44.979Z,53.44
2015-10-28T00:38:57.307Z,53.53
2015-10-28T00:39:09.653Z,53.06
2015-10-28T00:39:21.981Z,53.25
2015-10-28T00:39:34.340Z,53.53
2015-10-28T00:39:46.700Z,53.44
2015-10-28T00:39:59.028Z,53.63
2015-10-28T00:40:11.376Z,53.44
2015-10-28T00:40:23.704Z,53.34
2015-10-28T00:40:36.032Z,53.63
2015-10-28T00:40:48.360Z,53.53
2015-10-28T00:41:00.688Z,53.63
2015-10-28T00:41:13.034Z,53.63
2015-10-28T00:41:25.378Z,53.81
2015-10-28T00:41:37.003Z,54.28
2015-10-28T00:41:49.331Z,53.81
2015-10-28T00:42:01.674Z,54.1
2015-10-28T00:42:13.990Z,53.91
2015-10-28T00:42:26.334Z,54.19
2015-10-28T00:42:38.662Z,54.47
2015-10-28T00:42:50.990Z,54.47
2015-10-28T00:43:03.162Z,54.67
2015-10-28T00:43:15.524Z,55.05
2015-10-28T00:43:27.884Z,54.76
2015-10-28T00:43:40.243Z,54.86
2015-10-28T00:43:52.555Z,55.05
2015-10-28T00:44:04.884Z,55.14
2015-10-28T00:44:17.198Z,55.43
2015-10-28T00:44:29.526Z,55.24
2015-10-28T00:44:41.870Z,55.52
2015-10-28T00:44:54.229Z,55.62
2015-10-28T00:45:06.542Z,55.43
2015-10-28T00:45:18.169Z,55.9
2015-10-28T00:45:30.497Z,55.8
2015-10-28T00:45:42.809Z,55.8
2015-10-28T00:45:55.138Z,55.8
2015-10-28T00:46:07.466Z,55.8
2015-10-28T00:46:19.812Z,55.8
2015-10-28T00:46:32.141Z,55.9
2015-10-28T00:46:44.500Z,55.43
2015-10-28T00:46:56.891Z,55.52
2015-10-28T00:47:09.253Z,55.62
2015-10-28T00:47:21.597Z,55.71
2015-10-28T00:47:33.925Z,55.52
2015-10-28T00:47:46.253Z,55.52
2015-10-28T00:47:58.581Z,55.71
2015-10-28T00:48:10.912Z,55.62
2015-10-28T00:48:23.240Z,55.9
2015-10-28T00:48:35.568Z,55.8
2015-10-28T00:48:47.912Z,55.8
2015-10-28T00:49:00.256Z,55.71
2015-10-28T00:49:12.617Z,55.62
2015-10-28T00:49:24.977Z,55.52
2015-10-28T00:49:37.305Z,55.62
2015-10-28T00:49:49.633Z,55.52
2015-10-28T00:50:01.805Z,55.33
2015-10-28T00:50:14.136Z,55.43
2015-10-28T00:50:26.511Z,55.52
2015-10-28T00:50:38.855Z,55.33
2015-10-28T00:50:51.198Z,55.33
2015-10-28T00:51:03.527Z,55.33
2015-10-28T00:51:15.873Z,55.14
2015-10-28T00:51:28.201Z,55.14
2015-10-28T00:51:40.530Z,55.05
2015-10-28T00:51:52.842Z,55.05
2015-10-28T00:52:05.186Z,55.24
2015-10-28T00:52:17.516Z,55.05
2015-10-28T00:52:29.860Z,55.05
2015-10-28T00:52:42.188Z,55.05
2015-10-28T00:52:53.828Z,55.24
2015-10-28T00:53:06.203Z,55.24
2015-10-28T00:53:18.536Z,55.05
2015-10-28T00:53:30.864Z,55.05
2015-10-28T00:53:43.192Z,55.14
2015-10-28T00:53:55.520Z,55.05
2015-10-28T00:54:07.848Z,55.14
2015-10-28T00:54:20.208Z,55.14
2015-10-28T00:54:32.552Z,55.05
2015-10-28T00:54:44.896Z,55.14
2015-10-28T00:54:57.255Z,55.24
2015-10-28T00:55:09.633Z,55.24
2015-10-28T00:55:21.961Z,55.52
2015-10-28T00:55:34.321Z,55.43
2015-10-28T00:55:46.649Z,55.52
2015-10-28T00:55:58.977Z,55.52
2015-10-28T00:56:11.293Z,55.62
2015-10-28T00:56:23.636Z,55.71
2015-10-28T00:56:35.980Z,55.71
2015-10-28T00:56:48.339Z,55.62
2015-10-28T00:57:00.683Z,55.71
2015-10-28T00:57:12.999Z,55.62
2015-10-28T00:57:25.358Z,55.8
2015-10-28T00:57:37.686Z,55.52
2015-10-28T00:57:50.014Z,55.43
2015-10-28T00:58:02.327Z,55.43
2015-10-28T00:58:14.673Z,55.43
2015-10-28T00:58:27.001Z,55.52
2015-10-28T00:58:39.360Z,55.52
2015-10-28T00:58:51.719Z,55.52
2015-10-28T00:59:04.094Z,55.43
2015-10-28T00:59:16.457Z,55.52
2015-10-28T00:59:28.785Z,55.52
2015-10-28T00:59:41.113Z,55.33
2015-10-28T00:59:53.441Z,55.14
2015-10-28T01:00:05.769Z,54.95
2015-10-28T01:00:18.100Z,55.24
2015-10-28T01:00:29.725Z,55.05
2015-10-28T01:00:42.069Z,54.67
2015-10-28T01:00:54.444Z,54.76
2015-10-28T01:01:06.772Z,54.67
2015-10-28T01:01:19.103Z,54.86
2015-10-28T01:01:31.432Z,54.76
2015-10-28T01:01:43.760Z,55.05
2015-10-28T01:01:56.088Z,54.67
2015-10-28T01:02:08.419Z,54.57
2015-10-28T01:02:20.763Z,54.86
2015-10-28T01:02:33.106Z,54.67
2015-10-28T01:02:45.450Z,54.67
2015-10-28T01:02:57.841Z,54.67
2015-10-28T01:03:09.468Z,54.67
2015-10-28T01:03:21.937Z,54.95
2015-10-28T01:03:34.265Z,54.76
2015-10-28T01:03:46.593Z,54.86
2015-10-28T01:03:58.218Z,55.33
2015-10-28T01:04:10.549Z,55.05
2015-10-28T01:04:22.893Z,55.33
2015-10-28T01:04:35.268Z,55.33
2015-10-28T01:04:47.643Z,55.33
2015-10-28T01:04:59.986Z,55.43
2015-10-28T01:05:12.333Z,55.43
2015-10-28T01:05:24.661Z,55.43
2015-10-28T01:05:37.005Z,55.43
2015-10-28T01:05:49.333Z,55.43
2015-10-28T01:06:01.661Z,55.33
2015-10-28T01:06:14.007Z,55.52
2015-10-28T01:06:26.335Z,55.52
2015-10-28T01:06:38.679Z,55.43
2015-10-28T01:06:51.023Z,55.71
2015-10-28T01:07:03.351Z,55.8
2015-10-28T01:07:15.666Z,55.8
2015-10-28T01:07:27.994Z,55.8
2015-10-28T01:07:40.323Z,55.8
2015-10-28T01:07:52.651Z,55.71
2015-10-28T01:08:04.994Z,55.8
2015-10-28T01:08:17.341Z,55.71
2015-10-28T01:08:29.685Z,55.8
2015-10-28T01:08:42.060Z,55.8
2015-10-28T01:08:54.404Z,55.8
2015-10-28T01:09:06.732Z,55.8
2015-10-28T01:09:19.094Z,55.8
2015-10-28T01:09:30.719Z,55.8
2015-10-28T01:09:43.032Z,55.9
2015-10-28T01:09:55.360Z,55.8
2015-10-28T01:10:07.704Z,55.8
2015-10-28T01:10:20.049Z,55.8
2015-10-28T01:10:32.409Z,55.8
2015-10-28T01:10:44.784Z,55.8
2015-10-28T01:10:57.127Z,55.8
2015-10-28T01:11:09.442Z,55.71
2015-10-28T01:11:21.067Z,55.8
2015-10-28T01:11:33.395Z,55.62
2015-10-28T01:11:45.723Z,55.71
2015-10-28T01:11:58.067Z,55.9
2015-10-28T01:12:10.429Z,55.99
2015-10-28T01:12:22.773Z,55.99
2015-10-28T01:12:35.101Z,55.9
2015-10-28T01:12:47.429Z,56.18
2015-10-28T01:12:59.742Z,55.71
2015-10-28T01:13:12.073Z,55.8
2015-10-28T01:13:24.401Z,55.9
2015-10-28T01:13:36.729Z,55.8
2015-10-28T01:13:49.073Z,55.8
2015-10-28T01:14:00.714Z,55.9
2015-10-28T01:14:13.091Z,55.8
2015-10-28T01:14:25.466Z,55.8
2015-10-28T01:14:37.825Z,56.09
2015-10-28T01:14:50.153Z,56.09
2015-10-28T01:15:02.466Z,55.9
2015-10-28T01:15:14.797Z,56.09
2015-10-28T01:15:27.140Z,56.09
2015-10-28T01:15:39.469Z,56.06
2015-10-28T01:15:51.797Z,56.18
2015-10-28T01:16:04.140Z,56.09
2015-10-28T01:16:16.503Z,56.18
2015-10-28T01:16:28.862Z,56.18
2015-10-28T01:16:41.206Z,56.09
2015-10-28T01:16:53.534Z,56.63
2015-10-28T01:17:05.862Z,56.27
2015-10-28T01:17:18.193Z,56.37
2015-10-28T01:17:30.506Z,56.27
2015-10-28T01:17:42.834Z,56.44
2015-10-28T01:17:55.178Z,56.72
2015-10-28T01:18:07.365Z,56.85
2015-10-28T01:18:19.727Z,57.13
2015-10-28T01:18:32.086Z,57.13
2015-10-28T01:18:44.414Z,56.91
2015-10-28T01:18:56.727Z,56.85
2015-10-28T01:19:09.042Z,57.29
2015-10-28T01:19:21.355Z,57.32
2015-10-28T01:19:33.667Z,57.32
2015-10-28T01:19:46.011Z,57.32
2015-10-28T01:19:58.339Z,57.32
2015-10-28T01:20:10.686Z,57.23
2015-10-28T01:20:23.045Z,57.23
2015-10-28T01:20:35.420Z,57.23
2015-10-28T01:20:47.764Z,56.85
2015-10-28T01:21:00.076Z,57.23
2015-10-28T01:21:12.423Z,57.04
2015-10-28T01:21:24.751Z,57.04
2015-10-28T01:21:37.064Z,57.04
2015-10-28T01:21:49.407Z,57.32
2015-10-28T01:22:01.751Z,57.13
2015-10-28T01:22:13.394Z,57.23
2015-10-28T01:22:25.769Z,56.85
2015-10-28T01:22:37.988Z,57.13
2015-10-28T01:22:50.331Z,56.94
2015-10-28T01:23:25.647Z,57.23
2015-10-28T01:23:37.975Z,57.04
2015-10-28T01:23:50.303Z,57.23
2015-10-28T01:24:02.616Z,56.94
2015-10-28T01:24:14.944Z,57.13
2015-10-28T01:24:27.290Z,56.94
2015-10-28T01:24:39.634Z,57.42
2015-10-28T01:24:51.994Z,57.13
2015-10-28T01:25:04.337Z,57.32
2015-10-28T01:25:16.665Z,57.13
2015-10-28T01:25:28.997Z,57.23
2015-10-28T01:25:41.325Z,57.23
2015-10-28T01:25:53.653Z,57.23
2015-10-28T01:26:05.981Z,57.13
2015-10-28T01:26:18.328Z,57.23
2015-10-28T01:26:30.656Z,57.23
2015-10-28T01:26:43.015Z,57.13
2015-10-28T01:26:55.218Z,57.23
2015-10-28T01:27:07.578Z,57.23
2015-10-28T01:27:19.898Z,57.23
2015-10-28T01:27:32.226Z,56.94
2015-10-28T01:27:44.554Z,57.32
2015-10-28T01:27:56.882Z,57.13
2015-10-28T01:28:09.054Z,57.23
2015-10-28T01:28:21.388Z,56.85
2015-10-28T01:28:33.716Z,57.23
2015-10-28T01:28:46.060Z,56.94
2015-10-28T01:28:58.419Z,56.85
2015-10-28T01:29:10.622Z,56.75
2015-10-28T01:29:22.940Z,57.13
2015-10-28T01:29:35.284Z,57.32
2015-10-28T01:29:47.597Z,57.04
2015-10-28T01:29:59.925Z,57.13
2015-10-28T01:30:12.253Z,57.32
2015-10-28T01:30:24.571Z,57.32
2015-10-28T01:30:36.899Z,57.32
2015-10-28T01:30:49.087Z,57.23
2015-10-28T01:31:01.430Z,57.32
2015-10-28T01:31:13.790Z,57.13
2015-10-28T01:31:26.138Z,57.13
2015-10-28T01:31:38.482Z,57.23
2015-10-28T01:31:50.810Z,57.29
2015-10-28T01:32:03.138Z,57.2
2015-10-28T01:32:15.451Z,57.67
2015-10-28T01:32:27.806Z,57.39
2015-10-28T01:32:40.134Z,57.23
2015-10-28T01:32:52.462Z,57.39
2015-10-28T01:33:04.806Z,57.39
2015-10-28T01:33:17.165Z,57.79
2015-10-28T01:33:29.523Z,57.32
2015-10-28T01:33:41.210Z,57.57
2015-10-28T01:33:53.554Z,57.48
2015-10-28T01:34:05.882Z,57.48
2015-10-28T01:34:18.210Z,57.48
2015-10-28T01:34:30.552Z,57.39
2015-10-28T01:34:42.880Z,57.48
2015-10-28T01:34:55.239Z,57.57
2015-10-28T01:35:07.599Z,57.48
2015-10-28T01:35:19.941Z,57.57
2015-10-28T01:35:32.253Z,57.57
2015-10-28T01:35:44.581Z,57.48
2015-10-28T01:35:56.925Z,57.95
2015-10-28T01:36:09.269Z,57.76
2015-10-28T01:36:21.595Z,57.76
2015-10-28T01:36:33.939Z,58.33
2015-10-28T01:36:46.267Z,58.24
2015-10-28T01:36:58.610Z,58.14
2015-10-28T01:37:10.970Z,58.81
2015-10-28T01:37:23.345Z,59
2015-10-28T01:37:35.657Z,59.09
2015-10-28T01:37:47.985Z,59.38
2015-10-28T01:38:00.314Z,59.28
2015-10-28T01:38:12.642Z,59.56
2015-10-28T01:38:24.971Z,59.69
2015-10-28T01:38:37.315Z,59.66
2015-10-28T01:38:49.643Z,59.47
2015-10-28T01:39:02.049Z,59.47
2015-10-28T01:39:14.424Z,59.47
2015-10-28T01:39:26.752Z,59.5
2015-10-28T01:39:39.080Z,59.41
2015-10-28T01:39:51.252Z,59.59
2015-10-28T01:40:03.580Z,59.59
2015-10-28T01:40:15.893Z,59.41
2015-10-28T01:40:28.237Z,59.88
2015-10-28T01:40:40.581Z,60.35
2015-10-28T01:40:52.925Z,60.06
2015-10-28T01:41:05.284Z,60.44
2015-10-28T01:41:17.644Z,60.64
2015-10-28T01:41:30.020Z,60.44
2015-10-28T01:41:42.192Z,60.54
2015-10-28T01:41:54.520Z,60.16
2015-10-28T01:42:06.848Z,60.25
2015-10-28T01:42:19.178Z,59.88
2015-10-28T01:42:31.522Z,59.78
2015-10-28T01:42:43.147Z,59.5
2015-10-28T01:42:55.490Z,59.69
2015-10-28T01:43:07.850Z,59.59
2015-10-28T01:43:20.195Z,59.69
2015-10-28T01:43:32.538Z,59.78
2015-10-28T01:43:44.851Z,59.69
2015-10-28T01:43:57.179Z,59.69
2015-10-28T01:44:09.523Z,59.5
2015-10-28T01:44:21.869Z,59.5
2015-10-28T01:44:34.198Z,59.88
2015-10-28T01:44:46.541Z,59.97
2015-10-28T01:44:58.885Z,60.06
2015-10-28T01:45:11.073Z,60.25
2015-10-28T01:45:23.450Z,60.83
2015-10-28T01:45:35.793Z,60.64
2015-10-28T01:45:48.106Z,60.44
2015-10-28T01:46:00.434Z,60.44
2015-10-28T01:46:12.762Z,60.44
2015-10-28T01:46:25.092Z,60.83
2015-10-28T01:46:37.420Z,60.54
2015-10-28T01:46:49.748Z,61.02
2015-10-28T01:47:02.092Z,60.44
2015-10-28T01:47:14.436Z,60.35
2015-10-28T01:47:26.797Z,60.44
2015-10-28T01:47:39.157Z,60.54
2015-10-28T01:47:51.485Z,60.73
2015-10-28T01:48:03.813Z,60.44
2015-10-28T01:48:16.141Z,60.44
2015-10-28T01:48:28.472Z,60.54
2015-10-28T01:48:40.785Z,60.44
2015-10-28T01:48:53.113Z,60.73
2015-10-28T01:49:04.738Z,61.02
2015-10-28T01:49:17.082Z,60.54
2015-10-28T01:49:29.491Z,60.73
2015-10-28T01:49:41.866Z,60.92
2015-10-28T01:49:54.241Z,60.92
2015-10-28T01:50:06.569Z,60.92
2015-10-28T01:50:19.165Z,60.92
2015-10-28T01:50:31.493Z,60.83
2015-10-28T01:50:43.821Z,60.92
2015-10-28T01:50:56.133Z,61.02
2015-10-28T01:51:08.462Z,61.02
2015-10-28T01:51:20.104Z,61.11
2015-10-28T01:51:32.464Z,61.02
2015-10-28T01:51:44.823Z,61.21
2015-10-28T01:51:57.042Z,61.11
2015-10-28T01:52:09.370Z,61.58
2015-10-28T01:52:20.998Z,61.4
2015-10-28T01:52:33.326Z,61.49
2015-10-28T01:52:45.654Z,61.77
2015-10-28T01:52:58.013Z,61.87
2015-10-28T01:53:10.357Z,61.4
2015-10-28T01:53:22.720Z,61.77
2015-10-28T01:53:35.063Z,61.58
2015-10-28T01:53:47.391Z,61.68
2015-10-28T01:53:59.735Z,61.77
2015-10-28T01:54:11.345Z,61.77
2015-10-28T01:54:23.676Z,61.68
2015-10-28T01:54:35.988Z,61.87
2015-10-28T01:54:48.316Z,61.49
2015-10-28T01:55:00.644Z,61.58
2015-10-28T01:55:13.004Z,61.49
2015-10-28T01:55:25.381Z,61.49
2015-10-28T01:55:37.725Z,60.92
2015-10-28T01:55:50.053Z,61.21
2015-10-28T01:56:02.381Z,61.02
2015-10-28T01:56:14.709Z,61.3
2015-10-28T01:56:27.040Z,61.11
2015-10-28T01:56:39.368Z,60.92
2015-10-28T01:56:51.712Z,61.02
2015-10-28T01:57:04.040Z,60.83
2015-10-28T01:57:16.431Z,60.64
2015-10-28T01:57:28.809Z,60.83
2015-10-28T01:57:41.137Z,60.92
2015-10-28T01:57:53.449Z,61.02
2015-10-28T01:58:05.777Z,61.02
2015-10-28T01:58:18.121Z,60.83
2015-10-28T01:58:30.437Z,61.11
2015-10-28T01:58:42.780Z,61.3
2015-10-28T01:58:55.124Z,61.3
2015-10-28T01:59:07.484Z,61.21
2015-10-28T01:59:19.861Z,61.49
2015-10-28T01:59:32.173Z,61.11
2015-10-28T01:59:44.501Z,61.3
2015-10-28T01:59:56.845Z,61.3
2015-10-28T02:00:09.173Z,61.49
2015-10-28T02:00:21.520Z,61.3
2015-10-28T02:00:33.848Z,61.02
2015-10-28T02:00:46.192Z,61.02
2015-10-28T02:00:58.535Z,61.11
2015-10-28T02:01:10.895Z,61.21
2015-10-28T02:01:23.257Z,61.21
2015-10-28T02:01:35.570Z,61.3
2015-10-28T02:01:47.898Z,61.11
2015-10-28T02:02:00.226Z,61.21
2015-10-28T02:02:12.554Z,61.21
2015-10-28T02:02:24.901Z,61.11
2015-10-28T02:02:37.260Z,61.11
2015-10-28T02:02:49.620Z,61.21
2015-10-28T02:03:01.838Z,61.21
2015-10-28T02:03:14.166Z,61.3
2015-10-28T02:03:26.356Z,61.11
2015-10-28T02:03:38.684Z,61.3
2015-10-28T02:03:51.012Z,61.58
2015-10-28T02:04:03.340Z,61.4
2015-10-28T02:04:15.668Z,61.68
2015-10-28T02:04:28.015Z,61.96
2015-10-28T02:04:39.640Z,61.96
2015-10-28T02:04:51.984Z,62.05
2015-10-28T02:05:04.359Z,61.96
2015-10-28T02:05:16.687Z,61.96
2015-10-28T02:05:29.034Z,61.96
2015-10-28T02:05:41.362Z,62.05
2015-10-28T02:05:53.690Z,61.99
2015-10-28T02:06:06.034Z,61.87
2015-10-28T02:06:18.378Z,61.87
2015-10-28T02:06:30.756Z,61.96
2015-10-28T02:06:43.099Z,61.96
2015-10-28T02:06:55.459Z,61.68
2015-10-28T02:07:07.834Z,61.71
2015-10-28T02:07:20.178Z,61.58
2015-10-28T02:07:32.491Z,61.58
2015-10-28T02:07:44.835Z,60.92
2015-10-28T02:07:57.163Z,61.43
2015-10-28T02:08:09.491Z,61.4
2015-10-28T02:08:21.823Z,61.33
2015-10-28T02:08:34.167Z,60.95
2015-10-28T02:08:46.511Z,61.05
2015-10-28T02:08:58.886Z,61.02
2015-10-28T02:09:11.245Z,61.05
2015-10-28T02:09:23.606Z,61.33
2015-10-28T02:09:35.950Z,61.3
2015-10-28T02:09:47.575Z,61.02
2015-10-28T02:09:59.903Z,60.92
2015-10-28T02:10:12.247Z,60.92
2015-10-28T02:10:24.578Z,60.47
2015-10-28T02:10:36.906Z,60.73
2015-10-28T02:10:49.250Z,60.92
2015-10-28T02:11:01.609Z,60.83
2015-10-28T02:11:13.797Z,60.92
2015-10-28T02:11:26.128Z,60.73
2015-10-28T02:11:38.487Z,60.73
2015-10-28T02:11:50.097Z,60.73
2015-10-28T02:12:02.425Z,60.83
2015-10-28T02:12:14.753Z,60.83
2015-10-28T02:12:27.083Z,60.86
2015-10-28T02:12:39.442Z,60.73
2015-10-28T02:12:51.771Z,60.83
2015-10-28T02:13:04.130Z,61.02
2015-10-28T02:13:16.474Z,60.44
2015-10-28T02:13:28.852Z,60.44
2015-10-28T02:13:41.227Z,60.44
2015-10-28T02:13:53.555Z,60.44
2015-10-28T02:14:05.883Z,60.76
2015-10-28T02:14:18.211Z,61.02
2015-10-28T02:14:30.402Z,60.73
2015-10-28T02:14:42.745Z,60.64
2015-10-28T02:14:55.073Z,61.02
2015-10-28T02:15:07.402Z,61.02
2015-10-28T02:15:19.745Z,60.92
2015-10-28T02:15:32.108Z,60.83
2015-10-28T02:15:44.467Z,61.11
2015-10-28T02:15:56.811Z,60.92
2015-10-28T02:16:09.139Z,60.67
2015-10-28T02:16:21.470Z,60.76
2015-10-28T02:16:33.798Z,60.44
2015-10-28T02:16:46.142Z,60.73
2015-10-28T02:16:58.314Z,60.83
2015-10-28T02:17:10.658Z,60.73
2015-10-28T02:17:23.003Z,60.44
2015-10-28T02:17:35.347Z,60.64
2015-10-28T02:17:47.706Z,60.73
2015-10-28T02:18:00.081Z,60.64
2015-10-28T02:18:12.410Z,60.73
2015-10-28T02:18:24.740Z,60.64
2015-10-28T02:18:37.068Z,60.73
2015-10-28T02:18:49.396Z,60.73
2015-10-28T02:19:01.724Z,60.73
2015-10-28T02:19:14.083Z,60.73
2015-10-28T02:19:26.430Z,60.73
2015-10-28T02:19:38.774Z,60.73
2015-10-28T02:19:51.118Z,60.73
2015-10-28T02:20:03.477Z,60.73
2015-10-28T02:20:15.852Z,60.73
2015-10-28T02:20:28.214Z,60.64
2015-10-28T02:20:40.558Z,60.64
2015-10-28T02:20:52.886Z,60.64
2015-10-28T02:21:05.199Z,60.73
2015-10-28T02:21:17.543Z,60.64
2015-10-28T02:21:29.889Z,60.44
2015-10-28T02:21:42.233Z,60.44
2015-10-28T02:21:54.436Z,60.35
2015-10-28T02:22:06.780Z,60.35
2015-10-28T02:22:19.108Z,60.44
2015-10-28T02:22:31.455Z,60.35
2015-10-28T02:22:43.783Z,60.44
2015-10-28T02:22:56.111Z,60.73
2015-10-28T02:23:08.439Z,60.73
2015-10-28T02:23:20.767Z,61.02
2015-10-28T02:23:33.114Z,61.11
2015-10-28T02:23:45.489Z,60.83
2015-10-28T02:23:57.848Z,60.73
2015-10-28T02:24:09.505Z,60.73
2015-10-28T02:24:21.864Z,60.83
2015-10-28T02:24:34.210Z,60.73
2015-10-28T02:24:46.538Z,60.73
2015-10-28T02:24:58.866Z,60.83
2015-10-28T02:25:11.225Z,60.64
2015-10-28T02:25:23.554Z,61.02
2015-10-28T02:25:35.885Z,61.02
2015-10-28T02:25:47.369Z,61.11
2015-10-28T02:25:59.713Z,60.92
2015-10-28T02:26:12.072Z,61.21
2015-10-28T02:26:24.432Z,61.3
2015-10-28T02:26:36.810Z,61.3
2015-10-28T02:26:49.122Z,61.11
2015-10-28T02:27:01.466Z,60.92
2015-10-28T02:27:13.794Z,60.92
2015-10-28T02:27:26.122Z,60.73
2015-10-28T02:27:38.469Z,60.83
2015-10-28T02:27:50.797Z,60.64
2015-10-28T02:28:03.125Z,60.83
2015-10-28T02:28:15.469Z,61.02
2015-10-28T02:28:27.906Z,60.83
2015-10-28T02:28:40.252Z,61.02
2015-10-28T02:28:52.580Z,61.21
2015-10-28T02:29:04.893Z,61.02
2015-10-28T02:29:17.221Z,61.11
2015-10-28T02:29:29.552Z,60.83
2015-10-28T02:29:41.880Z,60.92
2015-10-28T02:29:54.208Z,60.92
2015-10-28T02:30:06.536Z,60.92
2015-10-28T02:30:18.177Z,60.73
2015-10-28T02:30:30.507Z,60.54
2015-10-28T02:30:42.882Z,60.73
2015-10-28T02:30:55.226Z,61.21
2015-10-28T02:31:07.554Z,61.02
2015-10-28T02:31:19.882Z,60.83
2015-10-28T02:31:32.212Z,60.92
2015-10-28T02:31:44.540Z,60.44
2015-10-28T02:31:56.868Z,60.73
2015-10-28T02:32:09.212Z,61.11
2015-10-28T02:32:21.572Z,60.54
2015-10-28T02:32:33.935Z,60.83
2015-10-28T02:32:46.279Z,61.02
2015-10-28T02:32:58.607Z,61.11
2015-10-28T02:33:10.935Z,61.11
2015-10-28T02:33:23.263Z,60.92
2015-10-28T02:33:35.593Z,60.83
2015-10-28T02:33:47.921Z,60.73
2015-10-28T02:34:00.249Z,60.73
2015-10-28T02:34:12.578Z,60.54
2015-10-28T02:34:24.921Z,60.83
2015-10-28T02:34:37.268Z,60.73
2015-10-28T02:34:49.627Z,60.73
2015-10-28T02:35:02.002Z,60.73
2015-10-28T02:35:14.331Z,60.73
2015-10-28T02:35:26.659Z,60.92
2015-10-28T02:35:38.990Z,60.44
2015-10-28T02:35:51.318Z,60.54
2015-10-28T02:36:03.677Z,60.64
2015-10-28T02:36:15.990Z,60.64
2015-10-28T02:36:28.334Z,60.64
2015-10-28T02:36:40.680Z,60.64
2015-10-28T02:36:53.040Z,60.44
2015-10-28T02:37:05.399Z,60.83
2015-10-28T02:37:17.727Z,60.92
2015-10-28T02:37:30.055Z,60.35
2015-10-28T02:37:42.402Z,60.64
2015-10-28T02:37:54.746Z,61.02
2015-10-28T02:38:07.074Z,61.02
2015-10-28T02:38:19.402Z,61.11
2015-10-28T02:38:31.730Z,61.02
2015-10-28T02:38:44.092Z,61.11
2015-10-28T02:38:56.435Z,60.92
2015-10-28T02:39:08.795Z,60.83
2015-10-28T02:39:21.154Z,60.92
2015-10-28T02:39:33.529Z,60.92
2015-10-28T02:39:45.860Z,60.83